Flight Track Log - Related Links

Times and Time Zones

All times are in EDT time to prevent confusion due to time zone crossing. See the C-GONN flight status page for this flight to view local times or setup timezone preferences in your user account.

Time Position Orientation Groundspeed Altitude Reporting Facility
EDT Latitude Longitude Course Direction KTS MPH feet Rate Location/Type
Sat 11:49:31 PM 49.6333 -115.7667 270° West 150 173 10,000  Level Vancouver Center
Sat 11:50:31 PM 49.6500 -115.8167 297° West 140 161 11,800 1,800 Climbing Vancouver Center
Sat 11:51:31 PM 49.6500 -115.9000 270° West 160 184 13,600 1,850 Climbing Vancouver Center
Sat 11:52:00 PM 49.5334 -116.5188 270° West  Level FlightAware Approximate
Sat 11:52:31 PM 49.6500 -115.9833 270° West 160 184 15,500  Level Vancouver Center
Sat 11:53:00 PM 49.5335 -116.6280 270° West  Level FlightAware Approximate
Sat 11:53:31 PM 49.6500 -116.0333 270° West 160 184 16,900  Level Vancouver Center
Sat 11:54:00 PM 49.5335 -116.7372 270° West  Level FlightAware Approximate
Sat 11:54:31 PM 49.6500 -116.1000 270° West 170 196 18,600  Level Vancouver Center
Sat 11:55:00 PM 49.5334 -116.8463 270° West  Level FlightAware Approximate
Sat 11:55:31 PM 49.6500 -116.1833 270° West 180 207 19,800  Level Vancouver Center
Sat 11:56:31 PM 49.6500 -116.2667 270° West 180 207 21,000 1,000 Climbing Vancouver Center
Sat 11:57:31 PM 49.6500 -116.3333 270° West 190 219 21,800 750 Climbing Vancouver Center
Sat 11:58:31 PM 49.6500 -116.4500 270° West 200 230 22,500 750 Climbing Vancouver Center
Sat 11:59:31 PM 49.6500 -116.5167 270° West 210 242 23,300 750 Climbing Vancouver Center
Sun 12:00:31 AM 49.6500 -116.6167 270° West 210 242 24,000 350 Climbing Vancouver Center
Sun 12:01:31 AM 49.6500 -116.7333 270° West 230 265 24,000  Level Vancouver Center
Sun 12:02:31 AM 49.6500 -116.8000 270° West 240 276 24,000  Level Vancouver Center
Sun 12:03:31 AM 49.6500 -116.9333 270° West 260 299 24,000  Level Vancouver Center
Sun 12:04:31 AM 49.6500 -117.0333 270° West 270 311 24,000  Level Vancouver Center
Sun 12:05:31 AM 49.6500 -117.1667 270° West 270 311 24,000  Level Vancouver Center
Sun 12:06:31 AM 49.6500 -117.2667 270° West 270 311 24,000  Level Vancouver Center
Sun 12:07:31 AM 49.6500 -117.4000 270° West 270 311 24,000  Level Vancouver Center
Sun 12:08:31 AM 49.6500 -117.5000 270° West 270 311 24,000  Level Vancouver Center
Sun 12:09:31 AM 49.6333 -117.6333 259° West 280 322 24,000  Level Vancouver Center
Sun 12:10:31 AM 49.6500 -117.7333 284° West 280 322 24,000  Level Vancouver Center
Sun 12:11:31 AM 49.6333 -117.8667 259° West 280 322 24,000  Level Vancouver Center
Sun 12:12:31 AM 49.6333 -118.0000 270° West 280 322 24,000  Level Vancouver Center
Sun 12:13:31 AM 49.6333 -118.1333 270° West 280 322 24,000  Level Vancouver Center
Sun 12:14:31 AM 49.6333 -118.2333 270° West 280 322 24,000  Level Vancouver Center
Sun 12:15:31 AM 49.6333 -118.3500 270° West 280 322 24,000  Level Vancouver Center
Sun 12:16:31 AM 49.6333 -118.4833 270° West 280 322 24,000  Level Vancouver Center
Sun 12:17:31 AM 49.6167 -118.5833 256° West 280 322 24,000  Level Vancouver Center
Sun 12:18:31 AM 49.6333 -118.7167 281° West 280 322 24,000  Level Vancouver Center
Sun 12:19:31 AM 49.6333 -118.8500 270° West 280 322 24,000  Level Vancouver Center
Sun 12:20:31 AM 49.6167 -118.9500 256° West 280 322 24,000  Level Vancouver Center
Sun 12:21:31 AM 49.6167 -119.0833 270° West 280 322 24,000  Level Vancouver Center
Sun 12:22:31 AM 49.6167 -119.2167 270° West 280 322 24,000  Level Vancouver Center
Sun 12:23:31 AM 49.6167 -119.3167 270° West 280 322 24,000  Level Vancouver Center
Sun 12:24:31 AM 49.6000 -119.4500 259° West 280 322 24,000  Level Vancouver Center
Sun 12:26:00 AM 49.5852 -119.6105 262° West  Level Estimated
Sun 12:33:00 AM 49.5121 -120.3665 262° West  Level Estimated
Sun 12:34:00 AM 49.5012 -120.4743 261° West  Level Estimated
Sun 12:35:00 AM 49.4903 -120.5820 261° West  Level Estimated
Sun 12:36:00 AM 49.4793 -120.6898 261° West  Level Estimated
Sun 12:37:00 AM 49.4681 -120.7974 261° West  Level Estimated
Sun 12:38:00 AM 49.4569 -120.9050 261° West  Level Estimated
Sun 12:39:00 AM 49.4455 -121.0126 261° West  Level Estimated
Sun 12:40:00 AM 49.4341 -121.1201 261° West  Level Estimated
Sun 12:41:00 AM 49.4226 -121.2276 261° West  Level Estimated
Sun 12:42:00 AM 49.4109 -121.3350 261° West  Level Estimated
Sun 12:43:00 AM 49.3992 -121.4424 261° West  Level Estimated
Sun 12:44:00 AM 49.3873 -121.5497 260° West  Level Estimated
Sun 12:45:00 AM 49.3754 -121.6570 260° West  Level Estimated
Sun 12:46:00 AM 49.3633 -121.7642 260° West  Level Estimated
Sun 12:47:00 AM 49.3512 -121.8713 260° West  Level Estimated
Sun 12:48:00 AM 49.3390 -121.9784 260° West  Level Estimated
Sun 12:49:00 AM 49.3266 -122.0855 260° West  Level Estimated
Sun 12:50:00 AM 49.3142 -122.1925 260° West  Level Estimated
Sun 12:51:00 AM 49.3017 -122.2994 260° West  Level Estimated
Sun 12:52:00 AM 49.2890 -122.4063 260° West  Level Estimated
Sun 12:53:00 AM 49.2763 -122.5131 260° West  Level Estimated
Sun 12:54:00 AM 49.2635 -122.6199 260° West  Level Estimated
Sun 12:55:00 AM 49.2505 -122.7266 260° West  Level Estimated
Sun 12:56:00 AM 49.2375 -122.8333 259° West  Level Estimated
Sun 12:57:00 AM 49.2244 -122.9399 259° West  Level Estimated
Sun 12:58:00 AM 49.2112 -123.0464 259° West  Level Estimated
Sun 12:59:00 AM 49.1978 -123.1529 259° West  Level Estimated
Sun 01:00:00 AM 49.1939 -123.1844 259° West  Level Estimated
Sun 01:01:00 AM 49.1939 -123.1844 249° West  Level Estimated
Sun 01:02:00 AM 49.1939 -123.1844 249° West  Level Estimated
Sun 01:03:00 AM 49.1939 -123.1844 249° West  Level Estimated
Sun 01:04:00 AM 49.1939 -123.1844 249° West  Level Estimated
Sun 01:05:00 AM 49.1939 -123.1844 249° West  Level Estimated
Sun 01:06:00 AM 49.1939 -123.1844 249° West  Level Estimated
Sun 01:07:00 AM 49.1939 -123.1844 249° West  Level Estimated
Sun 01:08:00 AM 49.1939 -123.1844 249° West  Level Estimated
Sun 01:09:00 AM 49.1939 -123.1844 249° West  Level Estimated
Sun 01:10:00 AM 49.1939 -123.1844 249° West  Level Estimated
Sun 01:11:00 AM 49.1939 -123.1844 249° West  Level Estimated

Login

Don't have an account? Register now (free) for customized features, flight alerts, and more!